sensor_id;sensor_type;location;lat;lon;timestamp;P1;durP1;ratioP1;P2;durP2;ratioP2
46751;SDS011;32497;48.936;9.270;2023-07-08T00:01:34;5.97;;;3.50;;
46751;SDS011;32497;48.936;9.270;2023-07-08T00:06:36;7.50;;;3.75;;
46751;SDS011;32497;48.936;9.270;2023-07-08T00:11:38;6.50;;;3.75;;
46751;SDS011;32497;48.936;9.270;2023-07-08T00:16:39;6.43;;;3.70;;
46751;SDS011;32497;48.936;9.270;2023-07-08T00:21:41;7.28;;;4.00;;
46751;SDS011;32497;48.936;9.270;2023-07-08T00:26:42;6.35;;;3.78;;
46751;SDS011;32497;48.936;9.270;2023-07-08T00:31:43;6.95;;;3.92;;
46751;SDS011;32497;48.936;9.270;2023-07-08T00:36:46;6.78;;;3.67;;
46751;SDS011;32497;48.936;9.270;2023-07-08T00:41:47;6.57;;;4.00;;
46751;SDS011;32497;48.936;9.270;2023-07-08T00:46:52;5.95;;;3.53;;
46751;SDS011;32497;48.936;9.270;2023-07-08T00:57:21;6.28;;;3.63;;
46751;SDS011;32497;48.936;9.270;2023-07-08T01:02:25;6.97;;;3.67;;
46751;SDS011;32497;48.936;9.270;2023-07-08T01:07:29;10.20;;;3.80;;
46751;SDS011;32497;48.936;9.270;2023-07-08T01:12:33;7.15;;;3.85;;
46751;SDS011;32497;48.936;9.270;2023-07-08T01:17:37;7.50;;;3.80;;
46751;SDS011;32497;48.936;9.270;2023-07-08T01:22:40;6.38;;;3.72;;
46751;SDS011;32497;48.936;9.270;2023-07-08T01:27:42;5.70;;;3.42;;
46751;SDS011;32497;48.936;9.270;2023-07-08T01:32:47;6.72;;;3.78;;
46751;SDS011;32497;48.936;9.270;2023-07-08T01:37:53;9.63;;;3.95;;
46751;SDS011;32497;48.936;9.270;2023-07-08T01:42:57;7.88;;;3.97;;
46751;SDS011;32497;48.936;9.270;2023-07-08T01:47:59;6.25;;;3.78;;
46751;SDS011;32497;48.936;9.270;2023-07-08T01:53:06;7.63;;;4.00;;
46751;SDS011;32497;48.936;9.270;2023-07-08T01:58:11;5.72;;;3.72;;
46751;SDS011;32497;48.936;9.270;2023-07-08T02:03:12;6.60;;;3.45;;
46751;SDS011;32497;48.936;9.270;2023-07-08T02:08:14;6.53;;;4.07;;
46751;SDS011;32497;48.936;9.270;2023-07-08T02:13:16;5.80;;;3.40;;
46751;SDS011;32497;48.936;9.270;2023-07-08T02:18:17;7.40;;;4.10;;
46751;SDS011;32497;48.936;9.270;2023-07-08T02:23:19;6.13;;;3.60;;
46751;SDS011;32497;48.936;9.270;2023-07-08T02:28:20;7.68;;;3.58;;
46751;SDS011;32497;48.936;9.270;2023-07-08T02:33:22;7.22;;;3.53;;
46751;SDS011;32497;48.936;9.270;2023-07-08T02:38:24;6.20;;;3.50;;
46751;SDS011;32497;48.936;9.270;2023-07-08T02:43:25;5.95;;;3.72;;
46751;SDS011;32497;48.936;9.270;2023-07-08T02:48:27;6.60;;;3.53;;
46751;SDS011;32497;48.936;9.270;2023-07-08T02:53:29;6.53;;;3.90;;
46751;SDS011;32497;48.936;9.270;2023-07-08T02:58:31;7.22;;;3.70;;
46751;SDS011;32497;48.936;9.270;2023-07-08T03:03:32;7.35;;;3.38;;
46751;SDS011;32497;48.936;9.270;2023-07-08T03:08:34;6.15;;;3.67;;
46751;SDS011;32497;48.936;9.270;2023-07-08T03:13:35;6.65;;;3.50;;
46751;SDS011;32497;48.936;9.270;2023-07-08T03:18:37;8.88;;;3.95;;
46751;SDS011;32497;48.936;9.270;2023-07-08T03:23:40;7.03;;;3.75;;
46751;SDS011;32497;48.936;9.270;2023-07-08T03:28:42;6.32;;;3.30;;
46751;SDS011;32497;48.936;9.270;2023-07-08T03:33:43;6.00;;;3.55;;
46751;SDS011;32497;48.936;9.270;2023-07-08T03:38:46;7.30;;;3.70;;
46751;SDS011;32497;48.936;9.270;2023-07-08T03:43:47;6.82;;;3.67;;
46751;SDS011;32497;48.936;9.270;2023-07-08T03:48:48;6.70;;;3.75;;
46751;SDS011;32497;48.936;9.270;2023-07-08T03:53:51;7.57;;;4.10;;
46751;SDS011;32497;48.936;9.270;2023-07-08T03:58:53;7.05;;;3.92;;
46751;SDS011;32497;48.936;9.270;2023-07-08T04:03:56;6.65;;;3.75;;
46751;SDS011;32497;48.936;9.270;2023-07-08T04:09:00;6.60;;;3.85;;
46751;SDS011;32497;48.936;9.270;2023-07-08T04:14:01;6.97;;;4.10;;
46751;SDS011;32497;48.936;9.270;2023-07-08T04:19:02;5.95;;;3.90;;
46751;SDS011;32497;48.936;9.270;2023-07-08T04:24:05;6.65;;;4.07;;
46751;SDS011;32497;48.936;9.270;2023-07-08T04:29:08;7.15;;;3.63;;
46751;SDS011;32497;48.936;9.270;2023-07-08T04:34:11;6.15;;;3.65;;
46751;SDS011;32497;48.936;9.270;2023-07-08T04:39:14;6.63;;;4.10;;
46751;SDS011;32497;48.936;9.270;2023-07-08T04:44:15;6.75;;;3.85;;
46751;SDS011;32497;48.936;9.270;2023-07-08T04:49:16;7.30;;;3.90;;
46751;SDS011;32497;48.936;9.270;2023-07-08T04:54:19;5.80;;;3.80;;
46751;SDS011;32497;48.936;9.270;2023-07-08T04:59:21;7.13;;;4.15;;
46751;SDS011;32497;48.936;9.270;2023-07-08T05:04:23;6.60;;;3.55;;
46751;SDS011;32497;48.936;9.270;2023-07-08T05:09:25;5.90;;;3.58;;
46751;SDS011;32497;48.936;9.270;2023-07-08T05:14:26;6.57;;;4.05;;
46751;SDS011;32497;48.936;9.270;2023-07-08T05:19:27;7.47;;;4.20;;
46751;SDS011;32497;48.936;9.270;2023-07-08T05:24:30;6.82;;;3.70;;
46751;SDS011;32497;48.936;9.270;2023-07-08T05:29:31;6.35;;;4.10;;
46751;SDS011;32497;48.936;9.270;2023-07-08T05:34:32;5.38;;;3.60;;
46751;SDS011;32497;48.936;9.270;2023-07-08T05:39:34;6.30;;;3.70;;
46751;SDS011;32497;48.936;9.270;2023-07-08T05:44:36;8.15;;;4.53;;
46751;SDS011;32497;48.936;9.270;2023-07-08T05:49:37;5.40;;;3.42;;
46751;SDS011;32497;48.936;9.270;2023-07-08T05:54:39;6.57;;;3.95;;
46751;SDS011;32497;48.936;9.270;2023-07-08T05:59:42;8.80;;;4.75;;
46751;SDS011;32497;48.936;9.270;2023-07-08T06:04:52;7.22;;;4.00;;
46751;SDS011;32497;48.936;9.270;2023-07-08T06:09:55;6.13;;;3.75;;
46751;SDS011;32497;48.936;9.270;2023-07-08T06:15:09;7.72;;;4.20;;
46751;SDS011;32497;48.936;9.270;2023-07-08T06:20:18;5.95;;;3.75;;
46751;SDS011;32497;48.936;9.270;2023-07-08T06:25:25;7.78;;;4.07;;
46751;SDS011;32497;48.936;9.270;2023-07-08T06:30:28;7.18;;;4.05;;
46751;SDS011;32497;48.936;9.270;2023-07-08T06:35:32;6.97;;;4.15;;
46751;SDS011;32497;48.936;9.270;2023-07-08T06:40:38;7.90;;;4.63;;
46751;SDS011;32497;48.936;9.270;2023-07-08T06:45:39;6.60;;;4.63;;
46751;SDS011;32497;48.936;9.270;2023-07-08T06:50:41;6.32;;;4.57;;
46751;SDS011;32497;48.936;9.270;2023-07-08T06:55:45;8.00;;;4.65;;
46751;SDS011;32497;48.936;9.270;2023-07-08T07:00:47;6.88;;;4.43;;
46751;SDS011;32497;48.936;9.270;2023-07-08T07:05:49;5.47;;;4.28;;
46751;SDS011;32497;48.936;9.270;2023-07-08T07:10:53;5.60;;;4.43;;
46751;SDS011;32497;48.936;9.270;2023-07-08T07:15:55;8.38;;;4.97;;
46751;SDS011;32497;48.936;9.270;2023-07-08T07:20:58;6.05;;;4.47;;
46751;SDS011;32497;48.936;9.270;2023-07-08T07:26:01;6.88;;;4.63;;
46751;SDS011;32497;48.936;9.270;2023-07-08T07:31:03;6.63;;;4.97;;
46751;SDS011;32497;48.936;9.270;2023-07-08T07:36:05;8.50;;;4.65;;
46751;SDS011;32497;48.936;9.270;2023-07-08T07:41:11;6.35;;;4.90;;
46751;SDS011;32497;48.936;9.270;2023-07-08T07:46:15;5.28;;;4.30;;
46751;SDS011;32497;48.936;9.270;2023-07-08T07:51:20;7.40;;;4.43;;
46751;SDS011;32497;48.936;9.270;2023-07-08T07:56:23;7.28;;;4.32;;
46751;SDS011;32497;48.936;9.270;2023-07-08T08:01:25;7.00;;;4.32;;
46751;SDS011;32497;48.936;9.270;2023-07-08T08:06:27;12.05;;;4.43;;
46751;SDS011;32497;48.936;9.270;2023-07-08T08:11:30;5.30;;;3.90;;
46751;SDS011;32497;48.936;9.270;2023-07-08T08:16:31;5.65;;;3.60;;
46751;SDS011;32497;48.936;9.270;2023-07-08T08:21:33;8.15;;;4.35;;
46751;SDS011;32497;48.936;9.270;2023-07-08T08:26:39;6.45;;;4.32;;
46751;SDS011;32497;48.936;9.270;2023-07-08T08:31:40;8.65;;;4.90;;
46751;SDS011;32497;48.936;9.270;2023-07-08T08:36:45;5.63;;;4.20;;
46751;SDS011;32497;48.936;9.270;2023-07-08T08:41:49;6.40;;;4.40;;
46751;SDS011;32497;48.936;9.270;2023-07-08T08:46:51;6.63;;;4.75;;
46751;SDS011;32497;48.936;9.270;2023-07-08T08:51:58;4.68;;;4.07;;
46751;SDS011;32497;48.936;9.270;2023-07-08T08:57:02;4.78;;;4.28;;
46751;SDS011;32497;48.936;9.270;2023-07-08T09:02:18;5.53;;;4.57;;
46751;SDS011;32497;48.936;9.270;2023-07-08T09:07:27;4.60;;;3.45;;
46751;SDS011;32497;48.936;9.270;2023-07-08T09:12:31;5.53;;;4.32;;
46751;SDS011;32497;48.936;9.270;2023-07-08T09:17:33;5.93;;;4.20;;
46751;SDS011;32497;48.936;9.270;2023-07-08T09:22:36;4.88;;;3.53;;
46751;SDS011;32497;48.936;9.270;2023-07-08T09:27:42;5.35;;;3.60;;
46751;SDS011;32497;48.936;9.270;2023-07-08T09:32:43;4.78;;;3.50;;
46751;SDS011;32497;48.936;9.270;2023-07-08T09:37:45;4.03;;;3.13;;
46751;SDS011;32497;48.936;9.270;2023-07-08T09:42:51;4.72;;;3.65;;
46751;SDS011;32497;48.936;9.270;2023-07-08T09:47:55;4.13;;;3.50;;
46751;SDS011;32497;48.936;9.270;2023-07-08T09:52:57;6.18;;;3.50;;
46751;SDS011;32497;48.936;9.270;2023-07-08T09:58:00;4.72;;;3.55;;
46751;SDS011;32497;48.936;9.270;2023-07-08T10:03:03;4.97;;;3.65;;
46751;SDS011;32497;48.936;9.270;2023-07-08T10:08:10;5.00;;;3.72;;
46751;SDS011;32497;48.936;9.270;2023-07-08T10:13:17;4.60;;;3.17;;
46751;SDS011;32497;48.936;9.270;2023-07-08T10:18:24;4.78;;;3.30;;
46751;SDS011;32497;48.936;9.270;2023-07-08T10:23:33;4.70;;;2.92;;
46751;SDS011;32497;48.936;9.270;2023-07-08T10:28:43;3.10;;;2.55;;
46751;SDS011;32497;48.936;9.270;2023-07-08T10:34:09;5.05;;;3.72;;
46751;SDS011;32497;48.936;9.270;2023-07-08T10:39:38;3.20;;;2.90;;
46751;SDS011;32497;48.936;9.270;2023-07-08T10:44:56;5.30;;;3.10;;
46751;SDS011;32497;48.936;9.270;2023-07-08T10:50:11;4.07;;;3.20;;
46751;SDS011;32497;48.936;9.270;2023-07-08T10:55:29;3.80;;;3.50;;
46751;SDS011;32497;48.936;9.270;2023-07-08T11:00:41;4.47;;;3.00;;
46751;SDS011;32497;48.936;9.270;2023-07-08T11:05:50;4.43;;;3.55;;
46751;SDS011;32497;48.936;9.270;2023-07-08T11:10:59;4.53;;;3.08;;
46751;SDS011;32497;48.936;9.270;2023-07-08T11:16:10;4.45;;;3.15;;
46751;SDS011;32497;48.936;9.270;2023-07-08T11:21:16;5.38;;;3.33;;
46751;SDS011;32497;48.936;9.270;2023-07-08T11:26:23;4.10;;;2.75;;
46751;SDS011;32497;48.936;9.270;2023-07-08T11:31:31;3.33;;;2.42;;
46751;SDS011;32497;48.936;9.270;2023-07-08T11:36:34;4.25;;;2.90;;
46751;SDS011;32497;48.936;9.270;2023-07-08T11:41:36;2.78;;;2.53;;
46751;SDS011;32497;48.936;9.270;2023-07-08T11:46:38;3.05;;;2.30;;
46751;SDS011;32497;48.936;9.270;2023-07-08T11:51:54;4.00;;;2.80;;
46751;SDS011;32497;48.936;9.270;2023-07-08T11:56:59;3.40;;;2.03;;
46751;SDS011;32497;48.936;9.270;2023-07-08T12:02:09;3.72;;;2.13;;
46751;SDS011;32497;48.936;9.270;2023-07-08T12:07:14;3.10;;;2.22;;
46751;SDS011;32497;48.936;9.270;2023-07-08T12:12:20;3.05;;;2.40;;
46751;SDS011;32497;48.936;9.270;2023-07-08T12:17:25;3.03;;;2.40;;
46751;SDS011;32497;48.936;9.270;2023-07-08T12:22:26;3.33;;;2.30;;
46751;SDS011;32497;48.936;9.270;2023-07-08T12:27:28;3.45;;;3.15;;
46751;SDS011;32497;48.936;9.270;2023-07-08T12:32:31;3.03;;;1.70;;
46751;SDS011;32497;48.936;9.270;2023-07-08T12:37:33;3.72;;;2.10;;
46751;SDS011;32497;48.936;9.270;2023-07-08T12:42:34;2.45;;;2.00;;
46751;SDS011;32497;48.936;9.270;2023-07-08T12:47:36;3.92;;;1.80;;
46751;SDS011;32497;48.936;9.270;2023-07-08T12:52:38;2.15;;;1.42;;
46751;SDS011;32497;48.936;9.270;2023-07-08T12:57:40;3.85;;;1.63;;
46751;SDS011;32497;48.936;9.270;2023-07-08T13:02:45;2.38;;;2.17;;
46751;SDS011;32497;48.936;9.270;2023-07-08T13:07:49;3.35;;;2.25;;
46751;SDS011;32497;48.936;9.270;2023-07-08T13:12:52;2.83;;;2.45;;
46751;SDS011;32497;48.936;9.270;2023-07-08T13:17:58;2.60;;;2.40;;
46751;SDS011;32497;48.936;9.270;2023-07-08T13:23:00;2.60;;;2.40;;
46751;SDS011;32497;48.936;9.270;2023-07-08T13:28:11;3.60;;;2.70;;
46751;SDS011;32497;48.936;9.270;2023-07-08T13:33:18;4.20;;;2.33;;
46751;SDS011;32497;48.936;9.270;2023-07-08T13:38:21;2.80;;;2.60;;
46751;SDS011;32497;48.936;9.270;2023-07-08T13:43:24;2.78;;;2.58;;
46751;SDS011;32497;48.936;9.270;2023-07-08T13:48:28;4.10;;;2.45;;
46751;SDS011;32497;48.936;9.270;2023-07-08T13:53:38;3.08;;;2.85;;
46751;SDS011;32497;48.936;9.270;2023-07-08T13:58:44;3.50;;;2.72;;
46751;SDS011;32497;48.936;9.270;2023-07-08T14:03:48;2.70;;;2.50;;
46751;SDS011;32497;48.936;9.270;2023-07-08T14:08:54;2.72;;;2.53;;
46751;SDS011;32497;48.936;9.270;2023-07-08T14:13:57;3.55;;;2.40;;
46751;SDS011;32497;48.936;9.270;2023-07-08T14:19:00;2.38;;;2.17;;
46751;SDS011;32497;48.936;9.270;2023-07-08T14:24:08;5.18;;;2.55;;
46751;SDS011;32497;48.936;9.270;2023-07-08T14:29:11;3.08;;;2.60;;
46751;SDS011;32497;48.936;9.270;2023-07-08T14:34:15;3.40;;;2.50;;
46751;SDS011;32497;48.936;9.270;2023-07-08T14:39:21;3.55;;;2.42;;
46751;SDS011;32497;48.936;9.270;2023-07-08T14:44:23;2.70;;;2.42;;
46751;SDS011;32497;48.936;9.270;2023-07-08T14:49:28;2.78;;;2.30;;
46751;SDS011;32497;48.936;9.270;2023-07-08T14:54:30;3.05;;;2.30;;
46751;SDS011;32497;48.936;9.270;2023-07-08T14:59:32;2.17;;;1.90;;
46751;SDS011;32497;48.936;9.270;2023-07-08T15:04:36;3.38;;;2.10;;
46751;SDS011;32497;48.936;9.270;2023-07-08T15:09:37;4.32;;;1.80;;
46751;SDS011;32497;48.936;9.270;2023-07-08T15:14:38;2.10;;;1.90;;
46751;SDS011;32497;48.936;9.270;2023-07-08T15:19:41;3.40;;;2.17;;
46751;SDS011;32497;48.936;9.270;2023-07-08T15:24:42;3.05;;;1.60;;
46751;SDS011;32497;48.936;9.270;2023-07-08T15:29:44;3.92;;;1.70;;
46751;SDS011;32497;48.936;9.270;2023-07-08T15:34:46;2.75;;;1.63;;
46751;SDS011;32497;48.936;9.270;2023-07-08T15:39:47;4.47;;;2.63;;
46751;SDS011;32497;48.936;9.270;2023-07-08T15:44:48;1.80;;;1.38;;
46751;SDS011;32497;48.936;9.270;2023-07-08T15:49:51;3.55;;;2.58;;
46751;SDS011;32497;48.936;9.270;2023-07-08T15:54:52;2.50;;;2.30;;
46751;SDS011;32497;48.936;9.270;2023-07-08T15:59:53;4.38;;;1.85;;
46751;SDS011;32497;48.936;9.270;2023-07-08T16:04:55;4.32;;;2.40;;
46751;SDS011;32497;48.936;9.270;2023-07-08T16:09:57;4.90;;;2.40;;
46751;SDS011;32497;48.936;9.270;2023-07-08T16:14:58;4.30;;;2.47;;
46751;SDS011;32497;48.936;9.270;2023-07-08T16:20:00;3.13;;;2.42;;
46751;SDS011;32497;48.936;9.270;2023-07-08T16:25:01;2.70;;;2.00;;
46751;SDS011;32497;48.936;9.270;2023-07-08T16:30:03;2.80;;;1.80;;
46751;SDS011;32497;48.936;9.270;2023-07-08T16:35:07;2.42;;;1.60;;
46751;SDS011;32497;48.936;9.270;2023-07-08T16:40:13;2.72;;;1.92;;
46751;SDS011;32497;48.936;9.270;2023-07-08T16:45:17;4.28;;;2.10;;
46751;SDS011;32497;48.936;9.270;2023-07-08T16:50:21;4.35;;;2.50;;
46751;SDS011;32497;48.936;9.270;2023-07-08T16:55:26;2.67;;;2.22;;
46751;SDS011;32497;48.936;9.270;2023-07-08T17:00:27;2.72;;;2.25;;
46751;SDS011;32497;48.936;9.270;2023-07-08T17:05:30;2.50;;;2.10;;
46751;SDS011;32497;48.936;9.270;2023-07-08T17:10:33;2.25;;;2.05;;
46751;SDS011;32497;48.936;9.270;2023-07-08T17:15:35;5.80;;;1.90;;
46751;SDS011;32497;48.936;9.270;2023-07-08T17:20:38;3.03;;;2.03;;
46751;SDS011;32497;48.936;9.270;2023-07-08T17:25:40;2.67;;;2.40;;
46751;SDS011;32497;48.936;9.270;2023-07-08T17:30:41;3.22;;;2.00;;
46751;SDS011;32497;48.936;9.270;2023-07-08T17:35:46;3.50;;;1.80;;
46751;SDS011;32497;48.936;9.270;2023-07-08T17:40:47;5.72;;;1.80;;
46751;SDS011;32497;48.936;9.270;2023-07-08T17:51:01;2.42;;;1.90;;
46751;SDS011;32497;48.936;9.270;2023-07-08T17:56:03;2.67;;;1.70;;
46751;SDS011;32497;48.936;9.270;2023-07-08T18:01:07;3.58;;;1.70;;
46751;SDS011;32497;48.936;9.270;2023-07-08T18:06:10;4.38;;;2.17;;
46751;SDS011;32497;48.936;9.270;2023-07-08T18:11:11;5.25;;;2.35;;
46751;SDS011;32497;48.936;9.270;2023-07-08T18:16:14;3.05;;;2.10;;
46751;SDS011;32497;48.936;9.270;2023-07-08T18:21:18;3.53;;;2.05;;
46751;SDS011;32497;48.936;9.270;2023-07-08T18:26:21;4.93;;;1.85;;
46751;SDS011;32497;48.936;9.270;2023-07-08T18:31:26;4.22;;;1.88;;
46751;SDS011;32497;48.936;9.270;2023-07-08T18:36:30;3.88;;;2.00;;
46751;SDS011;32497;48.936;9.270;2023-07-08T18:41:34;3.55;;;1.80;;
46751;SDS011;32497;48.936;9.270;2023-07-08T18:46:40;3.13;;;1.95;;
46751;SDS011;32497;48.936;9.270;2023-07-08T18:51:43;3.33;;;2.10;;
46751;SDS011;32497;48.936;9.270;2023-07-08T18:56:44;4.47;;;1.98;;
46751;SDS011;32497;48.936;9.270;2023-07-08T19:01:46;3.55;;;2.50;;
46751;SDS011;32497;48.936;9.270;2023-07-08T19:06:49;4.35;;;2.10;;
46751;SDS011;32497;48.936;9.270;2023-07-08T19:11:52;4.32;;;2.40;;
46751;SDS011;32497;48.936;9.270;2023-07-08T19:16:53;3.83;;;1.85;;
46751;SDS011;32497;48.936;9.270;2023-07-08T19:21:56;4.40;;;2.33;;
46751;SDS011;32497;48.936;9.270;2023-07-08T19:26:57;4.10;;;2.50;;
46751;SDS011;32497;48.936;9.270;2023-07-08T19:31:59;2.50;;;1.88;;
46751;SDS011;32497;48.936;9.270;2023-07-08T19:37:01;4.53;;;2.65;;
46751;SDS011;32497;48.936;9.270;2023-07-08T19:42:03;4.45;;;2.65;;
46751;SDS011;32497;48.936;9.270;2023-07-08T19:47:06;3.85;;;1.92;;
46751;SDS011;32497;48.936;9.270;2023-07-08T19:52:11;4.75;;;2.20;;
46751;SDS011;32497;48.936;9.270;2023-07-08T19:57:12;5.47;;;2.20;;
46751;SDS011;32497;48.936;9.270;2023-07-08T20:02:13;3.95;;;2.10;;
46751;SDS011;32497;48.936;9.270;2023-07-08T20:07:16;2.55;;;1.60;;
46751;SDS011;32497;48.936;9.270;2023-07-08T20:12:17;4.97;;;2.28;;
46751;SDS011;32497;48.936;9.270;2023-07-08T20:17:18;6.60;;;2.63;;
46751;SDS011;32497;48.936;9.270;2023-07-08T20:22:22;3.47;;;2.08;;
46751;SDS011;32497;48.936;9.270;2023-07-08T20:27:23;3.42;;;1.95;;
46751;SDS011;32497;48.936;9.270;2023-07-08T20:32:25;3.42;;;1.98;;
46751;SDS011;32497;48.936;9.270;2023-07-08T20:37:28;4.85;;;2.28;;
46751;SDS011;32497;48.936;9.270;2023-07-08T20:42:29;3.75;;;1.75;;
46751;SDS011;32497;48.936;9.270;2023-07-08T20:47:30;3.45;;;2.05;;
46751;SDS011;32497;48.936;9.270;2023-07-08T20:52:32;3.05;;;2.05;;
46751;SDS011;32497;48.936;9.270;2023-07-08T20:57:33;3.47;;;1.88;;
46751;SDS011;32497;48.936;9.270;2023-07-08T21:02:35;2.45;;;1.67;;
46751;SDS011;32497;48.936;9.270;2023-07-08T21:07:37;3.13;;;2.25;;
46751;SDS011;32497;48.936;9.270;2023-07-08T21:12:38;3.38;;;1.92;;
46751;SDS011;32497;48.936;9.270;2023-07-08T21:17:39;5.78;;;2.15;;
46751;SDS011;32497;48.936;9.270;2023-07-08T21:22:43;2.80;;;1.92;;
46751;SDS011;32497;48.936;9.270;2023-07-08T21:27:44;3.85;;;2.00;;
46751;SDS011;32497;48.936;9.270;2023-07-08T21:32:46;3.83;;;2.42;;
46751;SDS011;32497;48.936;9.270;2023-07-08T21:37:50;3.40;;;2.20;;
46751;SDS011;32497;48.936;9.270;2023-07-08T21:42:53;3.60;;;2.40;;
46751;SDS011;32497;48.936;9.270;2023-07-08T21:47:54;4.38;;;2.33;;
46751;SDS011;32497;48.936;9.270;2023-07-08T21:52:59;4.05;;;2.35;;
46751;SDS011;32497;48.936;9.270;2023-07-08T21:58:01;4.07;;;2.20;;
46751;SDS011;32497;48.936;9.270;2023-07-08T22:03:03;4.72;;;2.10;;
46751;SDS011;32497;48.936;9.270;2023-07-08T22:08:13;4.50;;;2.10;;
46751;SDS011;32497;48.936;9.270;2023-07-08T22:13:22;5.05;;;2.13;;
46751;SDS011;32497;48.936;9.270;2023-07-08T22:18:25;3.30;;;2.15;;
46751;SDS011;32497;48.936;9.270;2023-07-08T22:23:28;4.68;;;2.33;;
46751;SDS011;32497;48.936;9.270;2023-07-08T22:28:30;2.80;;;1.88;;
46751;SDS011;32497;48.936;9.270;2023-07-08T22:33:31;3.45;;;2.30;;
46751;SDS011;32497;48.936;9.270;2023-07-08T22:38:33;4.20;;;2.05;;
46751;SDS011;32497;48.936;9.270;2023-07-08T22:43:34;5.35;;;2.10;;
46751;SDS011;32497;48.936;9.270;2023-07-08T22:48:36;4.53;;;2.22;;
46751;SDS011;32497;48.936;9.270;2023-07-08T22:53:38;4.18;;;2.40;;
46751;SDS011;32497;48.936;9.270;2023-07-08T22:58:41;4.45;;;2.10;;
46751;SDS011;32497;48.936;9.270;2023-07-08T23:03:42;4.22;;;2.38;;
46751;SDS011;32497;48.936;9.270;2023-07-08T23:08:44;3.65;;;2.53;;
46751;SDS011;32497;48.936;9.270;2023-07-08T23:13:46;3.78;;;2.55;;
46751;SDS011;32497;48.936;9.270;2023-07-08T23:18:48;4.05;;;2.17;;
46751;SDS011;32497;48.936;9.270;2023-07-08T23:23:52;4.47;;;2.20;;
46751;SDS011;32497;48.936;9.270;2023-07-08T23:28:54;5.10;;;2.60;;
46751;SDS011;32497;48.936;9.270;2023-07-08T23:33:56;4.88;;;2.90;;
46751;SDS011;32497;48.936;9.270;2023-07-08T23:38:59;6.55;;;2.60;;
46751;SDS011;32497;48.936;9.270;2023-07-08T23:44:02;8.27;;;3.22;;
46751;SDS011;32497;48.936;9.270;2023-07-08T23:49:09;6.45;;;2.78;;
46751;SDS011;32497;48.936;9.270;2023-07-08T23:54:24;4.75;;;2.63;;
46751;SDS011;32497;48.936;9.270;2023-07-08T23:59:27;4.60;;;2.67;;
